createdAt,value
2023-04-24T05:50:12.913Z,97730.00
2023-04-24T05:52:40.530Z,97747.00
2023-04-24T05:55:08.791Z,97748.00
2023-04-24T05:57:36.370Z,97754.00
2023-04-24T06:00:06.141Z,97749.00
2023-04-24T06:02:34.057Z,97752.00
2023-04-24T06:05:01.718Z,97758.00
2023-04-24T06:07:29.313Z,97748.00
2023-04-24T06:09:57.790Z,97750.00
2023-04-24T06:12:25.522Z,97746.00
2023-04-24T06:14:52.972Z,97761.00
2023-04-24T06:17:20.452Z,97787.00
2023-04-24T06:19:48.150Z,97775.00
2023-04-24T06:22:16.322Z,97781.00
2023-04-24T06:24:43.825Z,97782.00
2023-04-24T06:27:11.367Z,97794.00
2023-04-24T06:29:38.808Z,97804.00
2023-04-24T06:32:06.383Z,97801.00
2023-04-24T06:34:35.203Z,97815.00
2023-04-24T06:37:03.234Z,97824.00
2023-04-24T06:39:30.734Z,97828.00
2023-04-24T06:41:58.256Z,97837.00
2023-04-24T06:44:26.061Z,97844.00
2023-04-24T06:46:53.775Z,97838.00
2023-04-24T06:49:21.293Z,97835.00
2023-04-24T06:51:48.730Z,97848.00
2023-04-24T06:54:16.343Z,97843.00
2023-04-24T06:56:44.244Z,97838.00
2023-04-24T06:59:11.669Z,97838.00
2023-04-24T07:01:39.277Z,97844.00
2023-04-24T07:04:07.020Z,97821.00
2023-04-24T07:06:34.646Z,97843.00
2023-04-24T07:09:02.875Z,97837.00
2023-04-24T07:11:30.495Z,97843.00
2023-04-24T07:13:58.123Z,97839.00
2023-04-24T07:16:25.673Z,97851.00
2023-04-24T07:18:54.305Z,97851.00
2023-04-24T07:21:21.771Z,97851.00
2023-04-24T07:23:49.255Z,97855.00
2023-04-24T07:26:17.119Z,97861.00
2023-04-24T07:28:44.585Z,97860.00
2023-04-24T07:31:13.340Z,97852.00
2023-04-24T07:33:41.107Z,97857.00
2023-04-24T07:36:08.729Z,97860.00
2023-04-24T07:38:36.243Z,97863.00
2023-04-24T07:41:03.771Z,97871.00
2023-04-24T07:43:31.547Z,97884.00
2023-04-24T07:45:59.132Z,97872.00
2023-04-24T07:48:27.617Z,97873.00
2023-04-24T07:50:55.591Z,97887.00
2023-04-24T07:53:23.098Z,97872.00
2023-04-24T07:55:51.545Z,97874.00
2023-04-24T07:58:19.206Z,97883.00
2023-04-24T08:00:46.629Z,97883.00
2023-04-24T08:03:14.374Z,97882.00
2023-04-24T08:05:44.075Z,97891.00
2023-04-24T08:08:11.831Z,97898.00
2023-04-24T08:10:39.373Z,97883.00
2023-04-24T08:13:07.037Z,97896.00
2023-04-24T08:15:34.676Z,97884.00
2023-04-24T08:18:02.236Z,97890.00
2023-04-24T08:20:30.033Z,97875.00
2023-04-24T08:22:57.687Z,97897.00
2023-04-24T08:25:25.808Z,97890.00
2023-04-24T08:27:53.486Z,97893.00
2023-04-24T08:30:21.511Z,97910.00
2023-04-24T08:32:49.580Z,97904.00
2023-04-24T08:35:17.188Z,97908.00
2023-04-24T08:37:44.993Z,97908.00
2023-04-24T08:40:18.163Z,97907.00
2023-04-24T08:42:46.665Z,97930.00
2023-04-24T08:45:14.849Z,97950.00
2023-04-24T08:47:43.731Z,97927.00
2023-04-24T08:50:13.725Z,97920.00
2023-04-24T08:52:42.847Z,97932.00
2023-04-24T08:55:10.816Z,97918.00
2023-04-24T08:57:41.189Z,97936.00
2023-04-24T09:00:11.880Z,97941.00
2023-04-24T09:02:44.901Z,97937.00
2023-04-24T09:05:14.249Z,97940.00
2023-04-24T09:07:45.791Z,97952.00
2023-04-24T09:10:15.029Z,97935.00
2023-04-24T09:12:45.183Z,97931.00
2023-04-24T09:15:13.357Z,97925.00
2023-04-24T09:17:40.976Z,97929.00
2023-04-24T09:20:09.466Z,97924.00
2023-04-24T09:22:38.532Z,97944.00
2023-04-24T09:25:10.115Z,97952.00
2023-04-24T09:27:42.225Z,97953.00
2023-04-24T09:30:10.673Z,97938.00
2023-04-24T09:32:38.336Z,97953.00
2023-04-24T09:35:16.899Z,97960.00
2023-04-24T09:37:48.084Z,97961.00
2023-04-24T09:40:21.153Z,97946.00
2023-04-24T09:42:58.917Z,97955.00
2023-04-24T09:45:41.113Z,97955.00
2023-04-24T09:48:12.273Z,97959.00
2023-04-24T09:50:39.896Z,97965.00
2023-04-24T09:53:12.309Z,97965.00
2023-04-24T09:55:49.237Z,97965.00
2023-04-24T09:58:16.771Z,97950.00
2023-04-24T10:00:46.907Z,97954.00
2023-04-24T10:03:14.655Z,97968.00
2023-04-24T10:05:44.623Z,97987.00
2023-04-24T10:08:14.529Z,97979.00
2023-04-24T10:10:46.870Z,97977.00
2023-04-24T10:13:16.855Z,97970.00
2023-04-24T10:15:45.569Z,97969.00
2023-04-24T10:18:13.581Z,97973.00
2023-04-24T10:20:42.316Z,97975.00
2023-04-24T10:23:09.862Z,97983.00
2023-04-24T10:25:38.184Z,97981.00
2023-04-24T10:28:08.385Z,97966.00
2023-04-24T10:30:37.501Z,97976.00
2023-04-24T10:33:09.050Z,97976.00
2023-04-24T10:35:44.055Z,97971.00
2023-04-24T10:38:17.843Z,97975.00
2023-04-24T10:40:45.473Z,97981.00
2023-04-24T10:43:19.930Z,97965.00
2023-04-24T10:46:07.303Z,97974.00
2023-04-24T10:48:35.657Z,97975.00
2023-04-24T10:51:03.453Z,97986.00
2023-04-24T10:53:32.334Z,97973.00
2023-04-24T10:56:10.965Z,97982.00
2023-04-24T10:58:53.457Z,97982.00
2023-04-24T11:01:33.208Z,97983.00
2023-04-24T11:04:04.878Z,97964.00
2023-04-24T11:06:37.255Z,97952.00
2023-04-24T11:09:13.859Z,97986.00
2023-04-24T11:11:48.198Z,97987.00
2023-04-24T11:14:19.065Z,97972.00
2023-04-24T11:16:56.326Z,97981.00
2023-04-24T11:19:29.696Z,97994.00
2023-04-24T11:22:18.145Z,97995.00
2023-04-24T11:24:48.380Z,97988.00
2023-04-24T11:27:21.722Z,97992.00
2023-04-24T11:30:11.800Z,97973.00
2023-04-24T11:32:43.636Z,97981.00
2023-04-24T11:35:26.188Z,97980.00
2023-04-24T11:38:12.518Z,97986.00
2023-04-24T11:40:43.992Z,97974.00
2023-04-24T11:43:12.379Z,97987.00
2023-04-24T11:45:48.968Z,97978.00
2023-04-24T11:48:23.887Z,97986.00
2023-04-24T11:50:52.389Z,98000.00
2023-04-24T11:53:23.206Z,97997.00
2023-04-24T11:55:50.784Z,98004.00
2023-04-24T11:58:23.859Z,98011.00
2023-04-24T12:01:02.384Z,98030.00
2023-04-24T12:03:30.071Z,98024.00
2023-04-24T12:06:11.128Z,98034.00
2023-04-24T12:08:39.035Z,98027.00
2023-04-24T12:11:08.615Z,98021.00
2023-04-24T12:13:37.089Z,98017.00
2023-04-24T12:16:06.582Z,98001.00
2023-04-24T12:18:34.278Z,97997.00
2023-04-24T12:21:23.681Z,98010.00
2023-04-24T12:23:52.093Z,98027.00
2023-04-24T12:26:21.480Z,98008.00
2023-04-24T12:28:51.110Z,98037.00
2023-04-24T12:31:18.915Z,98017.00
2023-04-24T12:33:46.382Z,98028.00
2023-04-24T12:36:14.381Z,98005.00
2023-04-24T12:38:47.427Z,98022.00
2023-04-24T12:41:16.267Z,98003.00
2023-04-24T12:43:54.858Z,98003.00
2023-04-24T12:46:22.763Z,98009.00
2023-04-24T12:48:50.816Z,98002.00
2023-04-24T12:51:18.391Z,97989.00
2023-04-24T12:53:46.016Z,98006.00
2023-04-24T12:56:13.475Z,98003.00
2023-04-24T12:58:41.006Z,98000.00
2023-04-24T13:01:09.025Z,97998.00
2023-04-24T13:03:37.353Z,97984.00
2023-04-24T13:06:04.981Z,97985.00
2023-04-24T13:08:32.522Z,97976.00
2023-04-24T13:10:59.945Z,97975.00
2023-04-24T13:13:27.433Z,97958.00
2023-04-24T13:15:54.919Z,97965.00
2023-04-24T13:18:23.102Z,98005.00
2023-04-24T13:20:50.992Z,98002.00
2023-04-24T13:23:18.661Z,97959.00
2023-04-24T13:25:46.635Z,97986.00
2023-04-24T13:28:14.200Z,97973.00
2023-04-24T13:30:41.909Z,97949.00
2023-04-24T13:33:09.546Z,97972.00
2023-04-24T13:35:38.987Z,97945.00
2023-04-24T13:38:07.731Z,97975.00
2023-04-24T13:40:35.331Z,97991.00
2023-04-24T13:43:03.849Z,97973.00
2023-04-24T13:45:31.463Z,97966.00
2023-04-24T13:47:58.981Z,97969.00
2023-04-24T13:50:26.729Z,97930.00
2023-04-24T13:52:54.452Z,97977.00
2023-04-24T13:55:22.000Z,97970.00
2023-04-24T13:57:50.035Z,97922.00
2023-04-24T14:00:19.023Z,97942.00
2023-04-24T14:02:46.832Z,97923.00
2023-04-24T14:05:16.393Z,97929.00
2023-04-24T14:07:44.012Z,97931.00
2023-04-24T14:10:11.904Z,97933.00
2023-04-24T14:12:39.578Z,97929.00
2023-04-24T14:15:09.765Z,97923.00
2023-04-24T14:17:37.325Z,97929.00
2023-04-24T14:20:06.708Z,97963.00
2023-04-24T14:22:34.614Z,97939.00
2023-04-24T14:25:02.082Z,97923.00
2023-04-24T14:27:29.805Z,97921.00
2023-04-24T14:29:58.191Z,97932.00
2023-04-24T14:32:25.678Z,97920.00
2023-04-24T14:34:53.402Z,97929.00
2023-04-24T14:37:21.040Z,97923.00
2023-04-24T14:39:56.222Z,97923.00
2023-04-24T14:42:29.867Z,97915.00
2023-04-24T14:44:57.367Z,97923.00
2023-04-24T14:47:24.968Z,97919.00
2023-04-24T14:49:52.917Z,97927.00
2023-04-24T14:52:21.163Z,97956.00
2023-04-24T14:54:48.606Z,97954.00
2023-04-24T14:57:16.657Z,97958.00
2023-04-24T14:59:44.150Z,97956.00
2023-04-24T15:02:16.693Z,97955.00
2023-04-24T15:04:45.569Z,97954.00
2023-04-24T15:07:13.129Z,97931.00
2023-04-24T15:09:40.930Z,97951.00
2023-04-24T15:12:08.876Z,97957.00
2023-04-24T15:14:36.743Z,97953.00
2023-04-24T15:17:04.432Z,97946.00
2023-04-24T15:19:33.651Z,97971.00
2023-04-24T15:22:01.189Z,97963.00
2023-04-24T15:24:28.727Z,97965.00
2023-04-24T15:26:58.841Z,97962.00
2023-04-24T15:29:28.346Z,97961.00
2023-04-24T15:31:55.787Z,97973.00
2023-04-24T15:34:23.284Z,97958.00
2023-04-24T15:36:50.846Z,97957.00
2023-04-24T15:39:18.641Z,97959.00
2023-04-24T15:41:46.105Z,97963.00
2023-04-24T15:44:13.593Z,97962.00
2023-04-24T15:46:41.095Z,97959.00
2023-04-24T15:49:08.600Z,97957.00
2023-04-24T15:51:36.079Z,97951.00
2023-04-24T15:54:03.873Z,97958.00
2023-04-24T15:56:31.729Z,97951.00
2023-04-24T15:58:59.300Z,97954.00
2023-04-24T16:01:26.964Z,97952.00
2023-04-24T16:03:54.540Z,97952.00
2023-04-24T16:06:22.243Z,97951.00
2023-04-24T16:08:50.568Z,97952.00
2023-04-24T16:11:18.229Z,97950.00
2023-04-24T16:13:45.776Z,97954.00
2023-04-24T16:16:13.416Z,97960.00
2023-04-24T16:18:41.140Z,97965.00
2023-04-24T16:21:09.510Z,97958.00
2023-04-24T16:23:37.053Z,97951.00
2023-04-24T16:26:04.540Z,97953.00
2023-04-24T16:28:32.166Z,97964.00
2023-04-24T16:30:59.940Z,97953.00
2023-04-24T16:33:27.500Z,97955.00
2023-04-24T16:35:55.806Z,97973.00
2023-04-24T16:38:25.189Z,97952.00
2023-04-24T16:40:52.760Z,97964.00
2023-04-24T16:43:20.877Z,97943.00
2023-04-24T16:45:48.345Z,97957.00
2023-04-24T16:48:15.910Z,97952.00
2023-04-24T16:50:43.443Z,97952.00
2023-04-24T16:53:10.955Z,97959.00
2023-04-24T16:55:39.546Z,97948.00
2023-04-24T16:58:07.351Z,97953.00
2023-04-24T17:00:35.702Z,97954.00
2023-04-24T17:03:03.482Z,97936.00
2023-04-24T17:05:31.326Z,97954.00
2023-04-24T17:07:59.189Z,97954.00
2023-04-24T17:10:26.661Z,97963.00
2023-04-24T17:12:54.119Z,97960.00
2023-04-24T17:15:21.611Z,97963.00
2023-04-24T17:17:50.619Z,97958.00
2023-04-24T17:20:22.522Z,97944.00
2023-04-24T17:22:51.565Z,97948.00
2023-04-24T17:25:21.513Z,97945.00
2023-04-24T17:27:49.144Z,97953.00
2023-04-24T17:30:17.986Z,97950.00
2023-04-24T17:32:46.027Z,97950.00
2023-04-24T17:35:13.578Z,97952.00
2023-04-24T17:37:41.470Z,97956.00
2023-04-24T17:40:10.143Z,97957.00
2023-04-24T17:42:41.517Z,97953.00
2023-04-24T17:45:10.705Z,97947.00
2023-04-24T17:47:38.281Z,97951.00
2023-04-24T17:50:06.759Z,97948.00
2023-04-24T17:52:35.125Z,97954.00
2023-04-24T17:55:02.659Z,97963.00
2023-04-24T17:57:30.208Z,97948.00
2023-04-24T17:59:57.617Z,97946.00
2023-04-24T18:02:25.205Z,97955.00
2023-04-24T18:04:55.163Z,97953.00
2023-04-24T18:07:22.893Z,97946.00
2023-04-24T18:09:51.126Z,97942.00
2023-04-24T18:12:18.687Z,97945.00
2023-04-24T18:14:46.259Z,97943.00
2023-04-24T18:17:13.716Z,97939.00
2023-04-24T18:19:41.175Z,97947.00
2023-04-24T18:22:08.625Z,97952.00
2023-04-24T18:24:36.105Z,97962.00
2023-04-24T18:27:04.215Z,97960.00
2023-04-24T18:29:31.729Z,97967.00
2023-04-24T18:31:59.362Z,97968.00
2023-04-24T18:34:26.939Z,97963.00
2023-04-24T18:36:54.726Z,97976.00
2023-04-24T18:39:23.176Z,97966.00
2023-04-24T18:41:50.851Z,97961.00
2023-04-24T18:44:19.996Z,97972.00
2023-04-24T18:46:47.540Z,97958.00
2023-04-24T18:49:15.080Z,97974.00
2023-04-24T18:51:52.982Z,97986.00
2023-04-24T18:54:21.005Z,97993.00
2023-04-24T18:56:48.525Z,97986.00
2023-04-24T18:59:15.990Z,97992.00
2023-04-24T19:01:43.790Z,97987.00
2023-04-24T19:04:11.459Z,98001.00
2023-04-24T19:06:38.980Z,97999.00
2023-04-24T19:09:06.963Z,97989.00
2023-04-24T19:11:34.703Z,97998.00
2023-04-24T19:14:04.293Z,97997.00
2023-04-24T19:16:31.966Z,98001.00
2023-04-24T19:18:59.527Z,97998.00
2023-04-24T19:21:27.975Z,97995.00
2023-04-24T19:23:57.092Z,97999.00
2023-04-24T19:26:25.911Z,98008.00
2023-04-24T19:28:53.814Z,98012.00
2023-04-24T19:31:21.590Z,97999.00
2023-04-24T19:33:49.127Z,98002.00
2023-04-24T19:36:19.987Z,98008.00
2023-04-24T19:38:48.352Z,98002.00
2023-04-24T19:41:16.272Z,98010.00
2023-04-24T19:43:43.827Z,98012.00
2023-04-24T19:46:11.715Z,98013.00
2023-04-24T19:48:39.281Z,98004.00
2023-04-24T19:51:06.766Z,98010.00
2023-04-24T19:53:49.687Z,98000.00
2023-04-24T19:56:17.316Z,98000.00
2023-04-24T19:58:44.846Z,97997.00
2023-04-24T20:01:12.437Z,98000.00
2023-04-24T20:03:40.109Z,98003.00
2023-04-24T20:06:07.698Z,98004.00
2023-04-24T20:08:39.022Z,97991.00
2023-04-24T20:11:06.909Z,98006.00
2023-04-24T20:13:34.544Z,98003.00
2023-04-24T20:16:02.031Z,98008.00
2023-04-24T20:18:29.603Z,98003.00
2023-04-24T20:20:59.972Z,98003.00
2023-04-24T20:23:28.090Z,98002.00
2023-04-24T20:25:58.564Z,98001.00
2023-04-24T20:28:27.898Z,98000.00
2023-04-24T20:30:55.972Z,98002.00
2023-04-24T20:33:23.876Z,98002.00
2023-04-24T20:35:52.547Z,97995.00
2023-04-24T20:38:20.062Z,97993.00
2023-04-24T20:40:57.248Z,97996.00
2023-04-24T20:43:29.059Z,97986.00
2023-04-24T20:46:00.326Z,97992.00
2023-04-24T20:48:27.930Z,97993.00
2023-04-24T20:50:56.096Z,97992.00
2023-04-24T20:53:23.947Z,97999.00
2023-04-24T20:55:52.173Z,97992.00
2023-04-24T20:58:21.149Z,97998.00
2023-04-24T21:00:49.275Z,97995.00
2023-04-24T21:03:17.121Z,97995.00
2023-04-24T21:05:44.649Z,97988.00
2023-04-24T21:08:12.672Z,97987.00
2023-04-24T21:10:40.235Z,97986.00
2023-04-24T21:13:07.947Z,97984.00
2023-04-24T21:15:35.804Z,97983.00
2023-04-24T21:18:04.280Z,97985.00
2023-04-24T21:20:31.938Z,97984.00
2023-04-24T21:22:59.417Z,97986.00
2023-04-24T21:25:27.456Z,97976.00
2023-04-24T21:27:55.802Z,97976.00
2023-04-24T21:30:23.439Z,97969.00
2023-04-24T21:32:52.262Z,97974.00
2023-04-24T21:35:20.342Z,97976.00
2023-04-24T21:37:47.888Z,97977.00
2023-04-24T21:40:16.136Z,97978.00
2023-04-24T21:42:43.915Z,97974.00
2023-04-24T21:45:12.127Z,97979.00
2023-04-24T21:47:39.655Z,97979.00
2023-04-24T21:50:08.614Z,97973.00
2023-04-24T21:52:36.136Z,97978.00
2023-04-24T21:55:03.885Z,97971.00
2023-04-24T21:57:31.481Z,97964.00
2023-04-24T21:59:59.292Z,97965.00
2023-04-24T22:02:26.844Z,97958.00
2023-04-24T22:04:56.654Z,97961.00
2023-04-24T22:07:24.392Z,97959.00
2023-04-24T22:09:51.877Z,97961.00
2023-04-24T22:12:20.501Z,97959.00
2023-04-24T22:14:47.996Z,97956.00
2023-04-24T22:17:17.371Z,97958.00
2023-04-24T22:19:44.954Z,97953.00
2023-04-24T22:22:12.412Z,97951.00
2023-04-24T22:24:40.534Z,97946.00
2023-04-24T22:27:08.039Z,97943.00
2023-04-24T22:29:35.549Z,97932.00
2023-04-24T22:32:03.082Z,97937.00
2023-04-24T22:34:30.542Z,97934.00
2023-04-24T22:36:58.013Z,97919.00
2023-04-24T22:39:25.725Z,97919.00
2023-04-24T22:41:53.657Z,97927.00
2023-04-24T22:44:21.802Z,97925.00
2023-04-24T22:46:49.308Z,97937.00
2023-04-24T22:49:16.801Z,97932.00
2023-04-24T22:51:44.726Z,97941.00
2023-04-24T22:54:12.143Z,97944.00
2023-04-24T22:56:40.111Z,97937.00
2023-04-24T22:59:07.699Z,97930.00
2023-04-24T23:01:35.116Z,97928.00
2023-04-24T23:04:02.740Z,97930.00
2023-04-24T23:06:31.013Z,97931.00
2023-04-24T23:08:58.428Z,97919.00
2023-04-24T23:11:26.018Z,97923.00
2023-04-24T23:13:53.554Z,97930.00
2023-04-24T23:16:21.007Z,97924.00
2023-04-24T23:18:48.728Z,97922.00
2023-04-24T23:21:16.284Z,97920.00
2023-04-24T23:23:43.841Z,97919.00
2023-04-24T23:26:11.336Z,97916.00
2023-04-24T23:28:40.432Z,97909.00
2023-04-24T23:31:08.024Z,97907.00
2023-04-24T23:33:35.483Z,97908.00
2023-04-24T23:36:03.580Z,97906.00
2023-04-24T23:38:39.915Z,97903.00
2023-04-24T23:41:16.786Z,97910.00
2023-04-24T23:43:44.247Z,97904.00
2023-04-24T23:46:11.973Z,97892.00
